Time;durP1;ratioP1;P1;durP2;ratioP2;P2;SDS_P1;SDS_P2;PMS_P1;PMS_P2;Temp;Humidity;BMP_temperature;BMP_pressure;BME280_temperature;BME280_humidity;BME280_pressure;Samples;Min_cycle;Max_cycle;Signal;HPM_P1;HPM_P2
2021/03/31 00:02:08;;;;;;;12.52;9.57;;;14.00;99.90;;;;;;5065309;28;20696;-68
2021/03/31 00:04:37;;;;;;;13.32;10.00;;;14.00;99.90;;;;;;5064602;28;20218;-68
2021/03/31 00:07:05;;;;;;;11.77;9.15;;;14.00;99.90;;;;;;5066381;28;20194;-68
2021/03/31 00:09:32;;;;;;;11.65;9.55;;;14.00;99.90;;;;;;5066758;28;20221;-68
2021/03/31 00:11:58;;;;;;;12.10;9.10;;;13.90;99.90;;;;;;5067477;28;20226;-68
2021/03/31 00:14:25;;;;;;;13.15;9.98;;;13.90;99.90;;;;;;5071220;28;20214;-68
2021/03/31 00:16:53;;;;;;;13.63;9.98;;;13.90;99.90;;;;;;5069194;28;20202;-68
2021/03/31 00:19:19;;;;;;;13.57;10.15;;;13.80;99.90;;;;;;5063715;28;20222;-68
2021/03/31 00:21:47;;;;;;;12.40;9.45;;;13.80;99.90;;;;;;5068457;28;20506;-68
2021/03/31 00:24:13;;;;;;;14.80;10.57;;;13.80;99.90;;;;;;5069173;28;20214;-68
2021/03/31 00:26:40;;;;;;;11.20;8.60;;;13.80;99.90;;;;;;5069239;28;20209;-68
2021/03/31 00:29:07;;;;;;;11.77;9.10;;;13.80;99.90;;;;;;5069224;28;20221;-68
2021/03/31 00:31:33;;;;;;;9.50;8.00;;;13.80;99.90;;;;;;5067578;28;20503;-68
2021/03/31 00:34:01;;;;;;;8.88;7.65;;;13.70;99.90;;;;;;5068551;28;20580;-68
2021/03/31 00:36:27;;;;;;;12.25;8.63;;;13.70;99.90;;;;;;5069410;28;20201;-68
2021/03/31 00:38:54;;;;;;;10.55;7.90;;;13.60;99.90;;;;;;5072418;28;20234;-68
2021/03/31 00:41:20;;;;;;;11.43;8.48;;;13.60;99.90;;;;;;5069944;28;20222;-68
2021/03/31 00:43:47;;;;;;;10.50;7.32;;;13.50;99.90;;;;;;5069780;28;20213;-68
2021/03/31 00:46:13;;;;;;;10.65;8.18;;;13.50;99.90;;;;;;5068536;28;20248;-68
2021/03/31 00:48:40;;;;;;;9.23;8.13;;;13.50;99.90;;;;;;5067854;28;20227;-68
2021/03/31 00:51:08;;;;;;;11.68;8.30;;;13.40;99.90;;;;;;5068671;28;20799;-68
2021/03/31 00:53:39;;;;;;;10.50;7.18;;;13.50;99.90;;;;;;5069156;28;20226;-68
2021/03/31 00:56:07;;;;;;;7.65;6.82;;;13.40;99.90;;;;;;5067330;28;20197;-68
2021/03/31 00:58:34;;;;;;;9.15;7.20;;;13.40;99.90;;;;;;5060373;28;20266;-68
2021/03/31 01:01:01;;;;;;;9.60;7.25;;;13.40;99.90;;;;;;5061914;28;20198;-68
2021/03/31 01:03:28;;;;;;;9.52;7.10;;;13.30;99.90;;;;;;5063590;28;20257;-68
2021/03/31 01:05:55;;;;;;;10.32;7.30;;;13.40;99.90;;;;;;5070025;28;20210;-68
2021/03/31 01:08:22;;;;;;;7.70;6.28;;;13.30;99.90;;;;;;5068131;28;20275;-68
2021/03/31 01:10:53;;;;;;;8.55;6.82;;;13.30;99.90;;;;;;5069288;28;20205;-68
2021/03/31 01:13:46;;;;;;;10.23;7.65;;;13.30;99.90;;;;;;5066179;28;20241;-68
2021/03/31 01:16:39;;;;;;;11.73;7.68;;;13.20;99.90;;;;;;5069814;28;20233;-68
2021/03/31 01:19:26;;;;;;;9.90;7.90;;;13.20;99.90;;;;;;5059522;28;20229;-68
2021/03/31 01:22:23;;;;;;;9.23;7.03;;;13.10;99.90;;;;;;5066426;28;20257;-68
2021/03/31 01:25:16;;;;;;;9.27;7.28;;;13.00;99.90;;;;;;5079729;28;20229;-68
2021/03/31 01:28:08;;;;;;;9.35;7.15;;;13.00;99.90;;;;;;5067360;28;20572;-68
2021/03/31 01:30:41;;;;;;;9.10;7.65;;;12.90;99.90;;;;;;5067961;28;21470;-68
2021/03/31 01:33:34;;;;;;;10.80;7.85;;;12.90;99.90;;;;;;5066210;28;20218;-68
2021/03/31 01:36:02;;;;;;;9.30;7.18;;;12.80;99.90;;;;;;5066841;28;20214;-68
2021/03/31 01:38:29;;;;;;;11.95;7.47;;;12.80;99.90;;;;;;5068515;28;20580;-68
2021/03/31 01:40:58;;;;;;;9.48;6.80;;;12.80;99.90;;;;;;5069300;28;20214;-68
2021/03/31 01:43:27;;;;;;;9.00;6.78;;;12.70;99.90;;;;;;5065020;28;20748;-68
2021/03/31 01:45:56;;;;;;;10.15;7.80;;;12.70;99.90;;;;;;5067906;28;20779;-68
2021/03/31 01:48:26;;;;;;;10.75;7.22;;;12.60;99.90;;;;;;5065149;28;20195;-68
2021/03/31 01:50:57;;;;;;;7.70;6.72;;;12.60;99.90;;;;;;5068057;28;20641;-68
2021/03/31 01:53:26;;;;;;;10.30;7.28;;;12.60;99.90;;;;;;5065019;28;20215;-68
2021/03/31 01:55:54;;;;;;;9.65;7.40;;;12.60;99.90;;;;;;5067320;28;20218;-68
2021/03/31 01:58:21;;;;;;;7.95;6.88;;;12.60;99.90;;;;;;5065463;28;20205;-68
2021/03/31 02:00:50;;;;;;;8.20;6.97;;;12.60;99.90;;;;;;5067128;28;20241;-68
2021/03/31 02:03:18;;;;;;;8.70;6.65;;;12.60;99.90;;;;;;5065201;28;20211;-68
2021/03/31 02:05:46;;;;;;;8.25;7.05;;;12.50;99.90;;;;;;5064373;28;20241;-68
2021/03/31 02:08:13;;;;;;;7.75;6.57;;;12.50;99.90;;;;;;5069258;28;20283;-67
2021/03/31 02:10:42;;;;;;;8.80;6.65;;;12.50;99.90;;;;;;5068756;28;20222;-68
2021/03/31 02:13:11;;;;;;;6.97;5.80;;;12.40;99.90;;;;;;5069740;28;20222;-68
2021/03/31 02:15:40;;;;;;;8.75;6.47;;;12.40;99.90;;;;;;5067897;28;20214;-68
2021/03/31 02:18:09;;;;;;;8.52;5.80;;;12.40;99.90;;;;;;5066355;28;20199;-68
2021/03/31 02:20:36;;;;;;;9.27;7.32;;;12.40;99.90;;;;;;5065730;28;20237;-68
2021/03/31 02:23:04;;;;;;;13.10;6.85;;;12.40;99.90;;;;;;5067694;28;20218;-68
2021/03/31 02:25:31;;;;;;;7.10;6.13;;;12.40;99.90;;;;;;5068076;28;20218;-68
2021/03/31 02:27:59;;;;;;;7.28;6.35;;;12.40;99.90;;;;;;5068306;28;20660;-68
2021/03/31 02:30:28;;;;;;;6.57;5.80;;;12.40;99.90;;;;;;5066663;28;20194;-68
2021/03/31 02:32:58;;;;;;;8.32;6.18;;;12.30;99.90;;;;;;5068061;28;20220;-68
2021/03/31 02:35:25;;;;;;;9.05;6.65;;;12.30;99.90;;;;;;5070654;28;20191;-68
2021/03/31 02:37:54;;;;;;;8.07;6.22;;;12.20;99.90;;;;;;5071237;28;20198;-68
2021/03/31 02:40:23;;;;;;;8.68;6.60;;;12.10;99.90;;;;;;5070271;28;20194;-68
2021/03/31 02:42:50;;;;;;;6.93;5.55;;;12.10;99.90;;;;;;5072763;28;20210;-68
2021/03/31 02:45:19;;;;;;;8.73;6.85;;;12.00;99.90;;;;;;5069173;28;20268;-68
2021/03/31 02:47:47;;;;;;;7.50;5.40;;;12.00;99.90;;;;;;5068701;28;20214;-68
2021/03/31 02:50:18;;;;;;;6.32;5.55;;;12.00;99.90;;;;;;5065234;28;20195;-68
2021/03/31 02:52:46;;;;;;;8.70;6.38;;;11.90;99.90;;;;;;5069429;28;20876;-68
2021/03/31 02:55:14;;;;;;;8.02;6.05;;;12.00;99.90;;;;;;5065249;28;20190;-68
2021/03/31 02:57:42;;;;;;;7.97;5.60;;;11.90;99.90;;;;;;5067694;28;20776;-68
2021/03/31 03:00:11;;;;;;;8.30;6.22;;;11.90;99.90;;;;;;5064145;28;20193;-68
2021/03/31 03:02:40;;;;;;;11.32;7.22;;;11.90;99.90;;;;;;5066312;28;20237;-68
2021/03/31 03:05:08;;;;;;;8.68;7.13;;;11.80;99.90;;;;;;5066615;28;20272;-68
2021/03/31 03:07:35;;;;;;;8.57;6.35;;;11.80;99.90;;;;;;5066908;28;20218;-68
2021/03/31 03:10:03;;;;;;;7.45;5.50;;;11.80;99.90;;;;;;5066812;28;20198;-68
2021/03/31 03:12:30;;;;;;;6.97;6.00;;;11.80;99.90;;;;;;5063868;28;20218;-68
2021/03/31 03:14:58;;;;;;;7.95;6.40;;;11.80;99.90;;;;;;5067284;28;20585;-68
2021/03/31 03:17:25;;;;;;;6.97;5.72;;;11.80;99.90;;;;;;5064512;28;20222;-68
2021/03/31 03:19:53;;;;;;;7.15;5.88;;;11.70;99.90;;;;;;5066570;28;20190;-68
2021/03/31 03:22:20;;;;;;;7.40;6.55;;;11.70;99.90;;;;;;5063434;28;20623;-68
2021/03/31 03:24:48;;;;;;;8.55;5.97;;;11.70;99.90;;;;;;5065819;28;20218;-68
2021/03/31 03:27:17;;;;;;;8.63;6.30;;;11.70;99.90;;;;;;5066234;28;20225;-68
2021/03/31 03:29:44;;;;;;;9.27;6.40;;;11.60;99.90;;;;;;5066110;28;20278;-68
2021/03/31 03:32:11;;;;;;;6.90;5.72;;;11.60;99.90;;;;;;5064910;28;20596;-68
2021/03/31 03:34:38;;;;;;;7.88;5.97;;;11.60;99.90;;;;;;5064531;28;20194;-68
2021/03/31 03:37:06;;;;;;;6.20;5.50;;;11.50;99.90;;;;;;5067012;28;20214;-68
2021/03/31 03:39:33;;;;;;;6.03;5.43;;;11.50;99.90;;;;;;5067366;28;20281;-68
2021/03/31 03:42:00;;;;;;;7.45;5.35;;;11.50;99.90;;;;;;5067267;28;20222;-68
2021/03/31 03:44:28;;;;;;;7.75;5.80;;;11.50;99.90;;;;;;5069713;28;20194;-68
2021/03/31 03:46:55;;;;;;;5.50;5.00;;;11.50;99.90;;;;;;5069869;28;20636;-68
2021/03/31 03:49:22;;;;;;;5.72;4.70;;;11.50;99.90;;;;;;5064115;28;20194;-68
2021/03/31 03:51:49;;;;;;;7.10;5.18;;;11.40;99.90;;;;;;5068983;28;20236;-68
2021/03/31 03:54:16;;;;;;;5.80;4.43;;;11.40;99.90;;;;;;5067563;28;20194;-68
2021/03/31 03:56:47;;;;;;;6.53;4.65;;;11.40;99.90;;;;;;5067337;28;20745;-68
2021/03/31 03:59:18;;;;;;;4.93;4.07;;;11.50;99.90;;;;;;5070830;28;20194;-68
2021/03/31 04:01:44;;;;;;;4.75;4.20;;;11.40;99.90;;;;;;5067356;28;20226;-68
2021/03/31 04:04:12;;;;;;;4.30;3.90;;;11.40;99.90;;;;;;5068955;28;20505;-68
2021/03/31 04:06:38;;;;;;;4.20;3.80;;;11.30;99.90;;;;;;5067973;28;20210;-68
2021/03/31 04:09:05;;;;;;;4.78;4.32;;;11.30;99.90;;;;;;5070459;28;20544;-68
2021/03/31 04:11:34;;;;;;;5.35;4.22;;;11.20;99.90;;;;;;5067119;28;20226;-68
2021/03/31 04:14:02;;;;;;;4.47;4.07;;;11.20;99.90;;;;;;5068095;28;20481;-68
2021/03/31 04:16:31;;;;;;;4.88;3.90;;;11.10;99.90;;;;;;5070999;28;20267;-68
2021/03/31 04:19:02;;;;;;;6.60;4.70;;;11.10;99.90;;;;;;5069073;28;20208;-68
2021/03/31 04:21:30;;;;;;;5.68;5.05;;;11.10;99.90;;;;;;5066715;28;20628;-68
2021/03/31 04:23:58;;;;;;;6.28;4.85;;;11.20;99.90;;;;;;5069872;28;20687;-70
2021/03/31 04:26:26;;;;;;;5.70;4.90;;;11.20;99.90;;;;;;5070724;28;20218;-70
2021/03/31 04:28:53;;;;;;;6.18;4.57;;;11.10;99.90;;;;;;5069109;28;20203;-73
2021/03/31 04:31:22;;;;;;;4.90;4.40;;;11.10;99.90;;;;;;5067419;28;20226;-71
2021/03/31 04:33:50;;;;;;;5.32;4.60;;;11.00;99.90;;;;;;5082618;28;20205;-71
2021/03/31 04:36:17;;;;;;;5.18;4.68;;;11.00;99.90;;;;;;5078420;28;20210;-70
2021/03/31 04:38:47;;;;;;;4.65;4.13;;;10.90;99.90;;;;;;5079382;28;20503;-71
2021/03/31 04:41:14;;;;;;;4.97;4.22;;;10.90;99.90;;;;;;5079645;28;20221;-71
2021/03/31 04:43:41;;;;;;;4.60;4.15;;;10.90;99.90;;;;;;5065818;28;20209;-70
2021/03/31 04:46:09;;;;;;;9.15;4.15;;;10.90;99.90;;;;;;5068959;28;20233;-70
2021/03/31 04:48:36;;;;;;;4.55;4.18;;;10.90;99.90;;;;;;5062936;28;20199;-72
2021/03/31 04:51:03;;;;;;;6.53;4.93;;;10.80;99.90;;;;;;5067983;28;20194;-71
2021/03/31 04:53:30;;;;;;;6.95;4.82;;;10.90;99.90;;;;;;5069098;28;20222;-71
2021/03/31 04:55:57;;;;;;;5.22;4.57;;;10.80;99.90;;;;;;5066588;28;20198;-72
2021/03/31 04:58:24;;;;;;;5.90;5.32;;;10.60;99.90;;;;;;5066774;28;20195;-75
2021/03/31 05:00:51;;;;;;;7.18;5.35;;;10.60;99.90;;;;;;5062351;28;20209;-71
2021/03/31 05:03:18;;;;;;;6.00;5.20;;;10.60;99.90;;;;;;5067727;28;20214;-70
2021/03/31 05:05:45;;;;;;;6.47;4.90;;;10.60;99.90;;;;;;5068735;28;20214;-69
2021/03/31 05:08:12;;;;;;;6.47;5.07;;;10.60;99.90;;;;;;5068117;28;20268;-71
2021/03/31 05:10:38;;;;;;;6.53;4.90;;;10.60;99.90;;;;;;5068800;28;20205;-70
2021/03/31 05:13:05;;;;;;;4.85;4.38;;;10.60;99.90;;;;;;5077469;23;20225;-89
2021/03/31 05:15:31;;;;;;;5.20;4.68;;;10.60;99.90;;;;;;5077946;28;20194;-88
2021/03/31 05:17:59;;;;;;;8.00;5.38;;;10.60;99.90;;;;;;5075952;28;20742;-88
2021/03/31 05:20:26;;;;;;;6.25;4.80;;;10.60;99.90;;;;;;5072529;28;20236;-83
2021/03/31 05:22:53;;;;;;;5.10;4.68;;;10.70;99.90;;;;;;5075853;28;20700;-88
2021/03/31 05:25:20;;;;;;;5.25;4.75;;;10.60;99.90;;;;;;5077585;28;20222;-85
2021/03/31 05:27:46;;;;;;;5.85;5.25;;;10.70;99.90;;;;;;5076319;28;20692;-88
2021/03/31 05:30:14;;;;;;;5.13;4.70;;;10.70;99.90;;;;;;5074974;28;20198;-86
2021/03/31 05:32:41;;;;;;;5.68;4.72;;;10.80;99.90;;;;;;5074118;28;20226;-87
2021/03/31 05:35:09;;;;;;;5.38;4.45;;;10.80;99.90;;;;;;5072172;28;20202;-87
2021/03/31 05:37:37;;;;;;;5.05;4.15;;;11.00;99.90;;;;;;5073894;28;20217;-87
2021/03/31 05:40:06;;;;;;;4.20;3.80;;;11.20;99.90;;;;;;5069274;28;20195;-88
2021/03/31 05:42:33;;;;;;;4.05;3.63;;;11.50;99.90;;;;;;5069727;28;20213;-86
2021/03/31 05:45:01;;;;;;;5.35;4.15;;;11.80;99.90;;;;;;5070026;28;20218;-87
2021/03/31 05:47:31;;;;;;;4.05;3.65;;;12.10;99.90;;;;;;5068536;28;20245;-84
2021/03/31 05:49:58;;;;;;;5.32;3.60;;;12.30;99.90;;;;;;5065397;28;20200;-85
2021/03/31 05:52:25;;;;;;;3.70;3.28;;;12.50;99.90;;;;;;5065918;28;20582;-86
2021/03/31 05:54:53;;;;;;;4.93;4.30;;;12.80;99.90;;;;;;5069947;28;20216;-86
2021/03/31 05:57:20;;;;;;;6.05;4.78;;;13.10;99.90;;;;;;5069897;28;20218;-83
2021/03/31 05:59:46;;;;;;;5.32;4.82;;;13.30;99.90;;;;;;5070737;28;20206;-85
2021/03/31 06:02:15;;;;;;;7.28;4.68;;;13.50;99.90;;;;;;5070252;28;20218;-86
2021/03/31 06:04:44;;;;;;;4.88;3.83;;;13.70;99.90;;;;;;5074064;28;20300;-84
2021/03/31 06:07:10;;;;;;;5.57;4.32;;;14.00;99.90;;;;;;5074830;28;20240;-86
2021/03/31 06:10:06;;;;;;;7.47;4.20;;;14.20;99.60;;;;;;5088300;28;20198;-82
2021/03/31 06:12:34;;;;;;;5.22;3.65;;;14.50;99.30;;;;;;5093413;28;20273;-84
2021/03/31 06:15:17;;;;;;;5.22;3.92;;;14.60;98.70;;;;;;5097023;28;20208;-84
2021/03/31 06:17:55;;;;;;;5.78;3.88;;;14.60;98.60;;;;;;5085497;28;20221;-83
2021/03/31 06:20:48;;;;;;;4.40;3.42;;;14.60;98.80;;;;;;5097956;28;20201;-84
2021/03/31 06:23:25;;;;;;;5.05;4.07;;;14.70;98.70;;;;;;5077743;28;20221;-82
2021/03/31 06:25:58;;;;;;;4.78;3.50;;;14.90;98.90;;;;;;5087985;28;20222;-82
2021/03/31 06:28:29;;;;;;;5.07;3.53;;;15.00;98.50;;;;;;5098941;28;20202;-81
2021/03/31 06:31:07;;;;;;;4.85;3.70;;;15.00;97.90;;;;;;5099038;28;20174;-82
2021/03/31 06:33:35;;;;;;;4.30;3.80;;;15.10;98.00;;;;;;5098647;28;20202;-82
2021/03/31 06:36:01;;;;;;;4.15;3.65;;;15.20;97.80;;;;;;5106626;22;20211;-78
2021/03/31 06:38:32;;;;;;;4.55;3.72;;;15.30;97.50;;;;;;5060408;28;20225;-76
2021/03/31 06:41:16;;;;;;;5.05;3.60;;;15.30;97.50;;;;;;5055556;28;20247;-76
2021/03/31 06:43:58;;;;;;;3.92;3.15;;;15.50;97.50;;;;;;5041897;28;20263;-78
2021/03/31 06:46:32;;;;;;;4.03;3.08;;;15.80;96.90;;;;;;5035286;28;20813;-77
2021/03/31 06:48:59;;;;;;;3.67;3.38;;;16.00;96.90;;;;;;5041968;28;20198;-74
2021/03/31 06:51:27;;;;;;;6.32;4.18;;;16.10;96.40;;;;;;5042756;28;20199;-75
2021/03/31 06:53:54;;;;;;;3.67;3.25;;;16.00;96.50;;;;;;5046515;28;20220;-74
2021/03/31 06:56:29;;;;;;;10.05;4.60;;;16.10;96.60;;;;;;5037507;28;20199;-77
2021/03/31 06:58:58;;;;;;;7.68;3.60;;;16.30;96.70;;;;;;5038807;28;20214;-76
2021/03/31 07:01:26;;;;;;;6.18;3.85;;;16.50;96.30;;;;;;5035318;28;20223;-76
2021/03/31 07:03:54;;;;;;;4.97;3.83;;;16.80;96.20;;;;;;5034910;28;20265;-75
2021/03/31 07:06:20;;;;;;;4.15;3.70;;;16.70;95.80;;;;;;5038306;28;20215;-76
2021/03/31 07:08:47;;;;;;;5.25;3.90;;;16.80;95.70;;;;;;5041288;28;20218;-76
2021/03/31 07:11:36;;;;;;;7.43;3.90;;;16.80;95.60;;;;;;5035794;28;20194;-75
2021/03/31 07:14:03;;;;;;;4.13;3.53;;;16.70;95.60;;;;;;5035205;28;20226;-77
2021/03/31 07:16:30;;;;;;;6.65;4.05;;;16.80;95.90;;;;;;5039817;28;20198;-75
2021/03/31 07:18:58;;;;;;;5.63;3.83;;;16.90;95.80;;;;;;5042487;28;20233;-75
2021/03/31 07:21:25;;;;;;;6.82;3.72;;;17.10;95.60;;;;;;5060569;28;20657;-77
2021/03/31 07:23:52;;;;;;;5.00;3.80;;;17.20;95.50;;;;;;5055036;28;20230;-78
2021/03/31 07:26:19;;;;;;;7.20;3.72;;;17.30;95.50;;;;;;5048393;28;20218;-77
2021/03/31 07:28:49;;;;;;;6.43;3.45;;;17.40;95.20;;;;;;5043210;28;20615;-77
2021/03/31 07:31:22;;;;;;;8.48;3.60;;;17.40;95.00;;;;;;5038150;28;20199;-78
2021/03/31 07:34:01;;;;;;;5.65;3.50;;;17.40;95.00;;;;;;5040479;28;20226;-79
2021/03/31 07:36:28;;;;;;;5.00;3.83;;;17.40;94.90;;;;;;5045294;28;20199;-78
2021/03/31 07:38:56;;;;;;;3.75;3.40;;;17.50;95.00;;;;;;5040025;28;20230;-78
2021/03/31 07:41:23;;;;;;;10.57;4.90;;;17.40;95.00;;;;;;5037040;28;20199;-78
2021/03/31 07:43:55;;;;;;;4.70;3.65;;;17.40;94.90;;;;;;5042805;28;20249;-78
2021/03/31 07:46:29;;;;;;;5.22;4.00;;;17.40;94.80;;;;;;5038994;28;20222;-78
2021/03/31 07:48:57;;;;;;;9.60;4.20;;;17.30;94.60;;;;;;5042454;28;20610;-76
2021/03/31 07:51:26;;;;;;;6.85;3.50;;;17.50;94.50;;;;;;5047197;28;20202;-78
2021/03/31 07:53:54;;;;;;;15.57;4.05;;;17.60;94.30;;;;;;5035797;28;20406;-76
2021/03/31 07:56:25;;;;;;;6.13;3.88;;;17.80;94.30;;;;;;5040527;28;20225;-76
2021/03/31 07:59:15;;;;;;;5.65;3.50;;;17.80;94.00;;;;;;5046875;28;20306;-78
2021/03/31 08:01:45;;;;;;;6.28;3.60;;;17.90;93.90;;;;;;5040728;28;20213;-77
2021/03/31 08:04:12;;;;;;;7.10;3.83;;;18.10;93.50;;;;;;5038700;28;20226;-77
2021/03/31 08:06:39;;;;;;;9.85;3.75;;;18.10;93.20;;;;;;5046793;28;20227;-76
2021/03/31 08:09:10;;;;;;;5.53;3.65;;;18.10;93.00;;;;;;5050471;28;20221;-78
2021/03/31 08:11:58;;;;;;;6.28;3.92;;;18.00;92.90;;;;;;5042840;28;20194;-77
2021/03/31 08:14:49;;;;;;;6.28;3.90;;;18.00;92.90;;;;;;5043578;28;20214;-76
2021/03/31 08:17:17;;;;;;;5.18;3.67;;;18.30;92.30;;;;;;5032224;28;20187;-76
2021/03/31 08:19:46;;;;;;;6.00;3.97;;;18.40;92.40;;;;;;5044619;28;20208;-77
2021/03/31 08:22:36;;;;;;;5.32;4.00;;;18.50;92.50;;;;;;5047224;28;20219;-78
2021/03/31 08:25:15;;;;;;;6.43;4.15;;;18.50;92.20;;;;;;5041871;28;20260;-75
2021/03/31 08:27:57;;;;;;;8.18;4.78;;;18.60;92.50;;;;;;5042552;28;20259;-76
2021/03/31 08:30:25;;;;;;;6.57;3.92;;;18.50;92.20;;;;;;5043399;28;20198;-78
2021/03/31 08:32:52;;;;;;;6.68;3.78;;;18.50;92.30;;;;;;5040465;28;20218;-78
2021/03/31 08:35:20;;;;;;;7.32;4.20;;;18.60;92.40;;;;;;5040759;28;20206;-76
2021/03/31 08:37:48;;;;;;;6.00;3.63;;;18.90;92.20;;;;;;5040744;28;22015;-76
2021/03/31 08:40:16;;;;;;;8.35;4.15;;;19.10;92.00;;;;;;5039512;28;20195;-76
2021/03/31 08:42:51;;;;;;;6.88;3.85;;;19.30;91.90;;;;;;5049138;28;20223;-77
2021/03/31 08:45:32;;;;;;;8.07;4.05;;;19.30;91.60;;;;;;5040336;28;20711;-77
2021/03/31 08:47:59;;;;;;;6.38;3.85;;;19.30;91.50;;;;;;5037347;28;20222;-76
2021/03/31 08:50:36;;;;;;;5.88;3.53;;;19.40;91.80;;;;;;5041419;28;20195;-75
2021/03/31 08:53:05;;;;;;;4.60;3.90;;;19.70;91.60;;;;;;5041069;28;20493;-76
2021/03/31 08:55:34;;;;;;;7.80;3.78;;;19.90;91.20;;;;;;5041053;28;20199;-76
2021/03/31 08:58:05;;;;;;;7.88;3.70;;;20.00;90.80;;;;;;5037137;28;20226;-78
2021/03/31 09:00:45;;;;;;;5.60;3.65;;;20.10;90.10;;;;;;5043907;28;20198;-79
2021/03/31 09:03:11;;;;;;;8.38;3.72;;;20.20;90.40;;;;;;5040390;28;20226;-79
2021/03/31 09:05:38;;;;;;;5.70;3.50;;;20.30;90.20;;;;;;5039832;28;20736;-76
2021/03/31 09:08:07;;;;;;;5.70;3.63;;;20.20;90.00;;;;;;5041174;28;20215;-76
2021/03/31 09:10:34;;;;;;;5.97;3.50;;;20.20;89.90;;;;;;5039558;28;20539;-77
2021/03/31 09:13:00;;;;;;;7.95;3.83;;;20.10;89.80;;;;;;5042889;28;20226;-78
2021/03/31 09:15:27;;;;;;;8.40;3.22;;;20.20;89.80;;;;;;5043056;28;20187;-79
2021/03/31 09:17:58;;;;;;;3.85;3.25;;;20.40;89.60;;;;;;5040597;28;20537;-77
2021/03/31 09:20:24;;;;;;;7.03;3.60;;;20.80;89.10;;;;;;5044127;28;20661;-79
2021/03/31 09:22:51;;;;;;;7.45;3.40;;;20.90;87.70;;;;;;5042926;28;20226;-76
2021/03/31 09:25:20;;;;;;;7.40;3.45;;;20.60;87.40;;;;;;5042460;28;20223;-76
2021/03/31 09:27:47;;;;;;;5.03;3.20;;;20.60;88.00;;;;;;5043158;28;20746;-77
2021/03/31 09:30:17;;;;;;;5.70;3.33;;;20.80;88.20;;;;;;5043726;28;20264;-78
2021/03/31 09:32:50;;;;;;;5.50;3.88;;;21.00;86.80;;;;;;5045544;28;20284;-75
2021/03/31 09:35:19;;;;;;;4.50;3.42;;;21.00;86.80;;;;;;5044586;28;20298;-77
2021/03/31 09:37:47;;;;;;;8.25;3.85;;;21.20;86.90;;;;;;5044708;28;20222;-76
2021/03/31 09:40:20;;;;;;;5.68;3.50;;;21.50;86.00;;;;;;5043462;28;20199;-77
2021/03/31 09:42:53;;;;;;;6.10;3.75;;;21.30;84.40;;;;;;5049439;28;20222;-77
2021/03/31 09:45:24;;;;;;;5.55;3.28;;;21.10;84.80;;;;;;5044191;28;20455;-78
2021/03/31 09:47:51;;;;;;;5.25;3.25;;;21.10;84.20;;;;;;5046499;28;20297;-77
2021/03/31 09:50:23;;;;;;;4.47;2.58;;;21.20;84.00;;;;;;5041156;28;20200;-76
2021/03/31 09:52:54;;;;;;;5.00;3.40;;;21.30;84.00;;;;;;5051803;28;20223;-76
2021/03/31 09:55:21;;;;;;;8.07;3.05;;;21.40;84.10;;;;;;5040927;28;20218;-77
2021/03/31 09:57:50;;;;;;;5.25;3.65;;;21.40;83.80;;;;;;5039627;28;20230;-76
2021/03/31 10:00:18;;;;;;;3.80;3.08;;;21.50;83.80;;;;;;5040629;28;20728;-77
2021/03/31 10:02:46;;;;;;;5.25;2.92;;;21.60;83.40;;;;;;5042011;28;20498;-77
2021/03/31 10:05:17;;;;;;;5.22;3.15;;;21.80;84.10;;;;;;5040207;28;20214;-78
2021/03/31 10:07:55;;;;;;;4.60;3.20;;;22.00;82.70;;;;;;5043954;28;20639;-77
2021/03/31 10:10:42;;;;;;;7.72;2.97;;;21.90;81.50;;;;;;5044245;28;20199;-77
2021/03/31 10:13:09;;;;;;;5.93;3.17;;;21.90;81.10;;;;;;5042142;28;20222;-77
2021/03/31 10:15:36;;;;;;;5.63;3.42;;;22.00;82.30;;;;;;5041930;28;20187;-77
2021/03/31 10:18:04;;;;;;;5.57;3.05;;;22.10;82.70;;;;;;5037101;28;20223;-77
2021/03/31 10:20:31;;;;;;;5.75;3.25;;;22.20;80.80;;;;;;5038348;28;20223;-77
2021/03/31 10:22:59;;;;;;;3.75;2.80;;;22.20;80.70;;;;;;5039045;28;20519;-76
2021/03/31 10:25:27;;;;;;;6.22;3.15;;;22.20;80.70;;;;;;5042471;28;20219;-74
2021/03/31 10:27:54;;;;;;;4.82;3.08;;;22.30;80.20;;;;;;5050686;28;20247;-77
2021/03/31 10:30:25;;;;;;;5.55;3.53;;;22.40;80.80;;;;;;5041261;28;20206;-77
2021/03/31 10:32:53;;;;;;;5.00;3.40;;;22.60;81.10;;;;;;5038077;28;20273;-77
2021/03/31 10:35:44;;;;;;;5.18;3.17;;;22.80;80.80;;;;;;5038121;28;20202;-77
2021/03/31 10:38:20;;;;;;;5.10;3.25;;;23.00;79.30;;;;;;5043407;28;20933;-77
2021/03/31 10:49:13;;;;;;;5.03;3.30;;;23.30;77.60;;;;;;5042918;28;20213;-77
2021/03/31 10:51:55;;;;;;;5.60;2.90;;;23.10;78.20;;;;;;5044929;28;20635;-78
2021/03/31 10:54:26;;;;;;;8.23;3.30;;;23.30;77.80;;;;;;5047121;28;20244;-76
2021/03/31 10:56:54;;;;;;;5.10;3.17;;;23.10;75.50;;;;;;5047964;28;20190;-77
2021/03/31 10:59:21;;;;;;;5.80;2.83;;;22.90;75.70;;;;;;5044666;28;20359;-77
2021/03/31 11:01:48;;;;;;;5.05;2.60;;;23.00;76.00;;;;;;5042358;28;20210;-77
2021/03/31 11:04:14;;;;;;;6.35;3.05;;;23.20;76.30;;;;;;5037614;28;20717;-77
2021/03/31 11:06:41;;;;;;;3.47;2.55;;;23.30;75.90;;;;;;5044217;28;20223;-77
2021/03/31 11:09:07;;;;;;;5.22;2.75;;;23.50;76.00;;;;;;5043223;28;20723;-77
2021/03/31 11:11:35;;;;;;;5.97;2.83;;;23.70;75.10;;;;;;5037889;28;20202;-76
2021/03/31 11:14:01;;;;;;;5.60;2.60;;;23.60;74.40;;;;;;5082733;22;20228;-68
2021/03/31 11:16:28;;;;;;;4.10;2.70;;;23.70;75.00;;;;;;5075234;28;20195;-67
2021/03/31 11:19:02;;;;;;;4.20;2.67;;;23.60;73.90;;;;;;5077609;28;20666;-67
2021/03/31 11:27:10;;;;;;;4.65;3.20;;;23.40;75.60;;;;;;5060162;28;20225;-70
2021/03/31 11:29:36;;;;;;;9.95;3.20;;;23.60;75.40;;;;;;5063091;28;20218;-67
2021/03/31 11:32:05;;;;;;;5.32;2.78;;;23.70;75.10;;;;;;5065527;28;20572;-68
2021/03/31 11:34:31;;;;;;;5.53;2.88;;;23.90;75.30;;;;;;5064389;28;20240;-66
2021/03/31 11:36:58;;;;;;;4.22;2.92;;;24.00;75.00;;;;;;5066905;28;20322;-67
2021/03/31 11:39:25;;;;;;;3.72;2.78;;;24.10;75.00;;;;;;5064670;28;20786;-67
2021/03/31 11:41:51;;;;;;;6.57;3.15;;;24.20;74.70;;;;;;5063112;28;20203;-67
2021/03/31 11:44:19;;;;;;;5.50;3.13;;;24.30;74.80;;;;;;5066676;28;20226;-67
2021/03/31 11:46:46;;;;;;;6.00;3.35;;;24.50;74.30;;;;;;5063507;28;20778;-67
2021/03/31 11:49:12;;;;;;;4.57;2.97;;;24.60;73.90;;;;;;5076805;28;20222;-67
2021/03/31 11:51:39;;;;;;;5.55;3.10;;;24.40;73.70;;;;;;5066543;28;20206;-67
2021/03/31 11:54:07;;;;;;;6.47;3.05;;;24.30;73.90;;;;;;5064256;28;20229;-67
2021/03/31 11:56:34;;;;;;;11.32;3.05;;;24.40;74.30;;;;;;5066361;28;20285;-68
2021/03/31 11:59:00;;;;;;;5.28;3.10;;;24.50;73.70;;;;;;5065816;28;20230;-68
2021/03/31 12:01:28;;;;;;;6.43;3.42;;;24.40;74.50;;;;;;5066263;28;20199;-69
2021/03/31 12:03:54;;;;;;;4.38;3.22;;;24.30;74.50;;;;;;5070545;28;20226;-69
2021/03/31 12:06:21;;;;;;;8.90;3.45;;;24.30;73.50;;;;;;5075230;28;20214;-70
2021/03/31 12:08:52;;;;;;;4.93;3.10;;;24.20;74.70;;;;;;5077854;28;20226;-69
2021/03/31 12:11:18;;;;;;;5.97;3.45;;;24.50;74.40;;;;;;5074637;28;20316;-69
2021/03/31 12:13:45;;;;;;;7.47;3.30;;;24.80;73.50;;;;;;5065234;28;20221;-68
2021/03/31 12:16:12;;;;;;;5.60;3.30;;;24.90;73.30;;;;;;5062858;28;20203;-68
2021/03/31 12:18:39;;;;;;;6.78;3.55;;;24.90;72.20;;;;;;5063081;28;20218;-69
2021/03/31 12:21:07;;;;;;;6.53;3.92;;;24.90;72.60;;;;;;5067097;28;20194;-68
2021/03/31 12:23:34;;;;;;;6.35;4.32;;;24.90;72.40;;;;;;5061590;28;20240;-70
2021/03/31 12:26:01;;;;;;;7.25;4.05;;;25.00;72.40;;;;;;5063213;28;20214;-68
2021/03/31 12:28:27;;;;;;;7.72;4.32;;;24.90;71.00;;;;;;5064237;28;20222;-68
2021/03/31 12:30:54;;;;;;;6.50;3.63;;;24.90;71.00;;;;;;5065808;28;20198;-68
2021/03/31 12:33:21;;;;;;;4.57;3.78;;;25.00;71.40;;;;;;5067593;28;20232;-70
2021/03/31 12:35:49;;;;;;;6.57;4.00;;;25.00;70.20;;;;;;5063862;28;20206;-70
2021/03/31 12:38:15;;;;;;;7.25;4.18;;;25.00;69.90;;;;;;5065482;28;20214;-69
2021/03/31 12:40:42;;;;;;;4.63;3.30;;;24.70;70.80;;;;;;5063648;28;20206;-68
2021/03/31 12:43:09;;;;;;;4.75;3.78;;;24.70;71.00;;;;;;5060210;28;20224;-68
2021/03/31 12:45:35;;;;;;;5.95;3.85;;;24.70;71.10;;;;;;5062618;28;20249;-69
2021/03/31 12:48:02;;;;;;;4.72;3.95;;;24.80;70.70;;;;;;5065585;28;20202;-68
2021/03/31 12:50:29;;;;;;;4.97;3.92;;;24.80;70.60;;;;;;5062407;28;20229;-67
2021/03/31 12:52:57;;;;;;;6.90;3.90;;;24.80;70.50;;;;;;5065183;28;20206;-67
2021/03/31 12:55:28;;;;;;;5.07;3.17;;;24.70;70.90;;;;;;5059267;28;20237;-69
2021/03/31 12:57:58;;;;;;;6.28;3.40;;;24.80;70.80;;;;;;5065795;28;20232;-69
2021/03/31 13:00:25;;;;;;;5.75;3.33;;;24.90;71.20;;;;;;5061450;28;20245;-67
2021/03/31 13:02:52;;;;;;;4.22;3.47;;;25.10;70.80;;;;;;5063253;28;20852;-68
2021/03/31 13:05:19;;;;;;;8.00;4.00;;;25.20;70.00;;;;;;5064598;28;20769;-68
2021/03/31 13:07:46;;;;;;;6.60;3.55;;;25.10;70.20;;;;;;5062922;28;20592;-68
2021/03/31 13:10:14;;;;;;;8.85;4.28;;;25.00;70.50;;;;;;5063865;28;20222;-68
2021/03/31 13:12:47;;;;;;;5.70;3.83;;;24.80;70.20;;;;;;5061780;28;20229;-68